Time;durP1;ratioP1;P1;durP2;ratioP2;P2;SDS_P1;SDS_P2;PMS_P1;PMS_P2;Temp;Humidity;BMP_temperature;BMP_pressure;BME280_temperature;BME280_humidity;BME280_pressure;Samples;Min_cycle;Max_cycle;Signal;HPM_P1;HPM_P2
2021/03/03 07:46:21;;;;;;;24.92;15.50;;;17.30;59.30;;;;;;5170123;27;20324;-71
2021/03/03 07:48:50;;;;;;;20.27;13.43;;;17.10;59.30;;;;;;5160016;27;20477;-73
2021/03/03 07:51:17;;;;;;;20.45;13.98;;;17.10;59.40;;;;;;5154025;27;20109;-71
2021/03/03 07:53:43;;;;;;;21.77;13.23;;;17.20;59.80;;;;;;5172843;27;20536;-73
2021/03/03 07:56:10;;;;;;;18.75;12.18;;;17.40;59.80;;;;;;5179455;27;20037;-73
2021/03/03 07:58:37;;;;;;;19.02;13.30;;;17.40;59.70;;;;;;5171180;27;20367;-73
2021/03/03 08:01:04;;;;;;;15.90;11.63;;;17.50;58.80;;;;;;5167832;27;20459;-73
2021/03/03 08:03:46;;;;;;;18.90;11.63;;;17.60;58.60;;;;;;5169415;27;20018;-74
2021/03/03 08:06:21;;;;;;;18.38;11.20;;;17.70;58.50;;;;;;5168138;27;20027;-73
2021/03/03 08:09:13;;;;;;;19.52;10.85;;;17.80;58.40;;;;;;5163414;27;20089;-73
2021/03/03 08:11:44;;;;;;;19.77;10.88;;;18.00;58.00;;;;;;5165181;27;20042;-72
2021/03/03 08:14:32;;;;;;;15.73;11.00;;;18.00;57.80;;;;;;5150313;27;20456;-72
2021/03/03 08:17:08;;;;;;;17.40;11.27;;;18.20;57.50;;;;;;5176770;27;20536;-71
2021/03/03 08:19:52;;;;;;;18.70;10.85;;;18.20;57.40;;;;;;5165136;27;20029;-73
2021/03/03 08:22:19;;;;;;;14.75;9.63;;;18.30;57.20;;;;;;5168850;27;20022;-73
2021/03/03 08:24:45;;;;;;;17.15;9.55;;;18.40;57.00;;;;;;5179853;27;20038;-74
2021/03/03 08:27:32;;;;;;;18.35;9.63;;;18.50;56.80;;;;;;5189189;27;20473;-72
2021/03/03 08:30:16;;;;;;;18.42;9.60;;;18.60;56.40;;;;;;5171264;27;20046;-72
2021/03/03 08:32:42;;;;;;;15.02;9.65;;;18.70;56.30;;;;;;5169294;27;20026;-73
2021/03/03 08:35:10;;;;;;;23.63;12.27;;;18.80;56.30;;;;;;5183818;27;20022;-72
2021/03/03 08:37:37;;;;;;;31.80;15.70;;;18.80;56.20;;;;;;5190924;27;20091;-73
2021/03/03 08:40:29;;;;;;;31.58;20.10;;;18.90;56.10;;;;;;5180174;27;20027;-73
2021/03/03 08:42:55;;;;;;;34.15;20.80;;;19.00;55.80;;;;;;5185530;27;20030;-74
2021/03/03 08:45:27;;;;;;;35.42;20.90;;;19.10;55.80;;;;;;5167852;27;20068;-73
2021/03/03 08:47:56;;;;;;;34.65;20.50;;;19.20;55.70;;;;;;5181779;27;20469;-73
2021/03/03 08:50:34;;;;;;;38.10;22.17;;;19.30;55.50;;;;;;5187738;27;20545;-73
2021/03/03 08:53:19;;;;;;;38.90;22.42;;;19.40;55.30;;;;;;5188566;27;20863;-73
2021/03/03 08:55:45;;;;;;;39.03;22.88;;;19.40;55.10;;;;;;5167158;27;20538;-73
2021/03/03 08:58:33;;;;;;;41.00;24.73;;;19.50;55.10;;;;;;5136649;27;20117;-73
2021/03/03 09:00:59;;;;;;;41.28;24.58;;;19.60;55.50;;;;;;5164807;27;20113;-72
2021/03/03 09:03:25;;;;;;;49.22;27.67;;;19.70;55.00;;;;;;5157220;27;20025;-75
2021/03/03 09:05:51;;;;;;;53.67;32.47;;;19.70;54.70;;;;;;5156249;27;20087;-72
2021/03/03 09:08:21;;;;;;;54.88;33.10;;;19.70;54.50;;;;;;5160351;27;20026;-72
2021/03/03 09:10:47;;;;;;;56.08;32.38;;;19.80;54.60;;;;;;5143204;27;20398;-72
2021/03/03 09:13:22;;;;;;;50.38;30.77;;;19.80;54.30;;;;;;5134188;27;20485;-73
2021/03/03 09:16:05;;;;;;;57.05;31.30;;;19.90;54.10;;;;;;5150282;27;20553;-72
2021/03/03 09:18:31;;;;;;;51.50;30.63;;;19.90;53.90;;;;;;5154510;27;20034;-72
2021/03/03 09:21:12;;;;;;;56.55;32.53;;;20.00;53.80;;;;;;5153815;27;20458;-72
2021/03/03 09:23:38;;;;;;;49.90;29.98;;;20.10;53.70;;;;;;5155431;27;20026;-72
2021/03/03 09:26:18;;;;;;;52.05;31.85;;;20.10;53.60;;;;;;5157074;27;20034;-73
2021/03/03 09:28:44;;;;;;;57.67;33.92;;;20.10;53.40;;;;;;5154502;27;20015;-72
2021/03/03 09:31:28;;;;;;;58.35;33.65;;;20.20;53.30;;;;;;5151930;27;20030;-72
2021/03/03 09:33:53;;;;;;;51.88;32.38;;;20.30;53.20;;;;;;5154346;27;20026;-72
2021/03/03 09:36:19;;;;;;;54.42;31.88;;;20.40;53.10;;;;;;5154001;27;20038;-72
2021/03/03 09:38:55;;;;;;;49.88;29.55;;;20.40;52.90;;;;;;5154529;27;20115;-72
2021/03/03 09:41:21;;;;;;;48.17;29.17;;;20.50;53.10;;;;;;5153883;27;20029;-73
2021/03/03 09:44:04;;;;;;;52.55;29.38;;;20.60;53.10;;;;;;5154383;27;20015;-72
2021/03/03 09:46:59;;;;;;;46.63;28.45;;;20.60;53.00;;;;;;5154036;27;20825;-72
2021/03/03 09:49:27;;;;;;;47.60;27.58;;;20.70;53.10;;;;;;5133220;27;20020;-72
2021/03/03 09:51:53;;;;;;;44.80;27.55;;;20.70;53.00;;;;;;5168240;27;20027;-74
2021/03/03 09:54:36;;;;;;;40.97;27.15;;;20.80;52.90;;;;;;5172815;27;20033;-73
2021/03/03 09:57:10;;;;;;;45.00;27.70;;;20.80;52.70;;;;;;5160497;27;20018;-72
2021/03/03 09:59:43;;;;;;;40.92;25.75;;;20.80;52.60;;;;;;5154111;27;20026;-72
2021/03/03 10:02:11;;;;;;;39.00;25.17;;;20.90;52.70;;;;;;5159380;27;20027;-72
2021/03/03 10:04:41;;;;;;;43.17;26.30;;;20.90;52.70;;;;;;5158163;27;20030;-72
2021/03/03 10:07:14;;;;;;;38.72;24.75;;;21.00;52.50;;;;;;5153911;27;20106;-72
2021/03/03 10:09:42;;;;;;;40.05;24.73;;;21.00;52.60;;;;;;5154445;27;20025;-72
2021/03/03 10:12:13;;;;;;;37.55;23.60;;;21.00;52.50;;;;;;5167890;27;20018;-72
2021/03/03 10:14:56;;;;;;;39.55;23.80;;;21.10;52.70;;;;;;5159021;27;20023;-72
2021/03/03 10:17:28;;;;;;;39.95;25.00;;;21.20;52.50;;;;;;5153680;27;20477;-73
2021/03/03 10:19:54;;;;;;;43.83;25.85;;;21.20;52.30;;;;;;5153542;27;20022;-73
2021/03/03 10:22:20;;;;;;;45.80;25.88;;;21.30;52.50;;;;;;5155963;27;20059;-72
2021/03/03 10:24:58;;;;;;;41.97;26.58;;;21.40;52.30;;;;;;5170532;27;20039;-72
2021/03/03 10:27:25;;;;;;;43.25;24.88;;;21.50;52.20;;;;;;5153069;27;20050;-73
2021/03/03 10:29:51;;;;;;;43.55;24.58;;;21.50;52.10;;;;;;5153496;27;20546;-73
2021/03/03 10:32:17;;;;;;;45.28;25.95;;;21.60;52.10;;;;;;5155172;27;20019;-73
2021/03/03 10:34:43;;;;;;;48.67;25.00;;;21.60;52.30;;;;;;5154810;27;20075;-73
2021/03/03 10:37:24;;;;;;;44.28;25.77;;;21.70;52.30;;;;;;5153360;27;20273;-73
2021/03/03 10:39:51;;;;;;;38.60;24.13;;;21.80;52.30;;;;;;5154302;27;20018;-73
2021/03/03 10:42:21;;;;;;;33.70;22.17;;;21.90;52.30;;;;;;5169536;27;20501;-73
2021/03/03 10:44:52;;;;;;;35.70;22.05;;;21.90;52.10;;;;;;5153235;27;20034;-73
2021/03/03 10:47:38;;;;;;;37.67;20.52;;;22.00;52.00;;;;;;5152881;27;20046;-73
2021/03/03 10:50:05;;;;;;;38.13;22.40;;;22.10;52.00;;;;;;5148047;27;20026;-73
2021/03/03 10:52:31;;;;;;;35.95;19.45;;;22.10;51.70;;;;;;5147443;27;20023;-73
2021/03/03 10:54:56;;;;;;;32.42;19.65;;;22.20;52.30;;;;;;5152645;27;20562;-73
2021/03/03 10:57:22;;;;;;;31.20;18.52;;;22.20;51.50;;;;;;5152431;27;20027;-73
2021/03/03 11:00:01;;;;;;;35.17;18.10;;;22.30;51.50;;;;;;5154014;27;20074;-73
2021/03/03 11:02:26;;;;;;;32.30;18.48;;;22.40;51.30;;;;;;5152676;27;20493;-73
2021/03/03 11:04:53;;;;;;;28.67;17.25;;;22.50;51.20;;;;;;5152668;27;20029;-73
2021/03/03 11:07:18;;;;;;;26.55;16.60;;;22.50;51.00;;;;;;5152356;27;20538;-74
2021/03/03 11:09:52;;;;;;;26.77;15.65;;;22.60;50.90;;;;;;5152968;27;20110;-73
2021/03/03 11:12:24;;;;;;;26.27;15.75;;;22.70;50.70;;;;;;5152655;27;20030;-73
2021/03/03 11:14:50;;;;;;;24.42;16.10;;;22.70;50.50;;;;;;5152586;27;20115;-73
2021/03/03 11:17:16;;;;;;;26.17;16.10;;;22.90;50.50;;;;;;5152122;27;20060;-73
2021/03/03 11:19:41;;;;;;;28.67;15.25;;;23.00;50.40;;;;;;5152508;27;20038;-73
2021/03/03 11:22:07;;;;;;;28.92;14.20;;;23.10;51.20;;;;;;5140538;27;20054;-73
2021/03/03 11:24:33;;;;;;;22.58;15.00;;;23.20;50.70;;;;;;5141772;27;20023;-73
2021/03/03 11:26:58;;;;;;;22.10;14.45;;;23.30;50.70;;;;;;5133631;27;20026;-73
2021/03/03 11:29:24;;;;;;;21.10;13.43;;;23.30;50.40;;;;;;5152120;27;20423;-73
2021/03/03 11:31:50;;;;;;;23.27;13.35;;;23.40;50.40;;;;;;5152375;27;20019;-73
2021/03/03 11:34:15;;;;;;;22.77;13.48;;;23.50;50.30;;;;;;5152408;27;20045;-73
2021/03/03 11:36:41;;;;;;;25.52;13.55;;;23.60;50.40;;;;;;5155700;27;20050;-73
2021/03/03 11:39:09;;;;;;;31.02;14.48;;;23.80;50.10;;;;;;5152600;27;20366;-72
2021/03/03 11:41:35;;;;;;;26.67;12.88;;;23.90;49.70;;;;;;5152229;27;20026;-73
2021/03/03 11:44:00;;;;;;;19.42;12.45;;;24.00;49.60;;;;;;5152344;27;20023;-73
2021/03/03 11:46:26;;;;;;;21.00;11.77;;;24.10;49.30;;;;;;5152356;27;20418;-73
2021/03/03 11:48:52;;;;;;;16.90;11.95;;;24.20;49.20;;;;;;5151168;27;20015;-73
2021/03/03 11:51:17;;;;;;;19.52;12.45;;;24.30;48.90;;;;;;5148206;27;20093;-73
2021/03/03 11:53:43;;;;;;;20.02;11.93;;;24.40;48.60;;;;;;5146502;27;20135;-73
2021/03/03 11:56:09;;;;;;;18.23;11.98;;;24.50;48.50;;;;;;5139714;27;20042;-72
2021/03/03 11:58:36;;;;;;;20.40;12.02;;;24.70;48.40;;;;;;5150768;27;20022;-73
2021/03/03 12:01:02;;;;;;;21.83;12.85;;;24.90;48.70;;;;;;5150355;27;20018;-75
2021/03/03 12:03:27;;;;;;;19.05;10.48;;;25.50;47.40;;;;;;5147662;27;20147;-76
2021/03/03 12:05:53;;;;;;;16.52;10.45;;;26.20;46.10;;;;;;5152068;27;20501;-74
2021/03/03 12:08:18;;;;;;;16.95;11.05;;;27.00;44.90;;;;;;5149131;27;20046;-73
2021/03/03 12:10:44;;;;;;;19.40;10.85;;;27.60;44.00;;;;;;5151392;27;20027;-73
2021/03/03 12:13:10;;;;;;;16.05;9.75;;;28.20;43.40;;;;;;5133062;27;20435;-74
2021/03/03 12:15:35;;;;;;;20.23;10.18;;;28.50;42.80;;;;;;5157066;27;20498;-72
2021/03/03 12:18:01;;;;;;;17.27;10.57;;;28.80;41.90;;;;;;5149530;27;20106;-73
2021/03/03 12:20:28;;;;;;;21.98;11.30;;;29.10;41.50;;;;;;5149152;27;20031;-73
2021/03/03 12:22:55;;;;;;;15.00;9.70;;;29.50;41.00;;;;;;5131546;27;20367;-75
2021/03/03 12:25:21;;;;;;;18.80;10.88;;;29.70;40.70;;;;;;5149024;27;20064;-73
2021/03/03 12:27:47;;;;;;;19.13;10.00;;;29.90;40.40;;;;;;5150139;27;20019;-73
2021/03/03 12:30:14;;;;;;;18.77;10.10;;;30.00;40.10;;;;;;5159375;27;20099;-73
2021/03/03 12:32:39;;;;;;;17.05;9.95;;;30.20;39.80;;;;;;5153360;27;20022;-74
2021/03/03 12:35:06;;;;;;;14.73;10.00;;;30.30;39.60;;;;;;5155812;27;20498;-73
2021/03/03 12:37:31;;;;;;;16.95;10.05;;;30.40;39.20;;;;;;5154166;27;20078;-74
2021/03/03 12:39:57;;;;;;;16.48;10.30;;;30.40;39.30;;;;;;5152784;27;20055;-73
2021/03/03 12:42:22;;;;;;;16.20;9.85;;;30.60;39.00;;;;;;5159750;27;20098;-75
2021/03/03 12:44:49;;;;;;;18.45;9.35;;;30.40;38.80;;;;;;5171727;27;20042;-73
2021/03/03 12:47:15;;;;;;;14.55;8.93;;;30.50;39.20;;;;;;5138950;27;20033;-74
2021/03/03 12:49:40;;;;;;;16.48;9.52;;;30.30;39.70;;;;;;5153323;27;20030;-74
2021/03/03 12:52:06;;;;;;;16.17;9.63;;;30.30;39.30;;;;;;5154502;27;20030;-74
2021/03/03 12:54:32;;;;;;;15.50;9.52;;;30.50;39.00;;;;;;5153489;27;20062;-74
2021/03/03 12:56:57;;;;;;;17.33;9.02;;;30.60;38.70;;;;;;5153173;27;20015;-73
2021/03/03 12:59:23;;;;;;;13.25;8.93;;;30.40;39.20;;;;;;5153597;27;20035;-74
2021/03/03 13:01:49;;;;;;;17.42;9.13;;;30.10;38.70;;;;;;5154734;27;20023;-74
2021/03/03 13:04:14;;;;;;;14.70;9.60;;;28.90;40.50;;;;;;5157991;27;20574;-74
2021/03/03 13:06:40;;;;;;;16.33;9.85;;;28.00;42.00;;;;;;5166607;27;20094;-75
2021/03/03 13:09:06;;;;;;;15.20;9.65;;;27.30;43.10;;;;;;5153983;27;20038;-74
2021/03/03 13:11:31;;;;;;;16.50;9.93;;;26.90;43.80;;;;;;5164759;27;20018;-73
2021/03/03 13:13:57;;;;;;;13.43;9.25;;;26.50;44.30;;;;;;5158838;27;20083;-75
2021/03/03 13:16:23;;;;;;;16.50;9.70;;;26.20;44.90;;;;;;5170446;27;20110;-75
2021/03/03 13:18:49;;;;;;;13.13;8.70;;;25.90;45.40;;;;;;5152335;27;20026;-75
2021/03/03 13:21:16;;;;;;;14.60;8.10;;;25.80;45.80;;;;;;5154396;27;20031;-75
2021/03/03 13:23:42;;;;;;;15.70;9.70;;;25.70;46.00;;;;;;5153797;27;20037;-74
2021/03/03 13:26:08;;;;;;;14.30;9.15;;;25.60;46.60;;;;;;5154573;27;20102;-75
2021/03/03 13:28:33;;;;;;;15.60;8.80;;;25.50;46.80;;;;;;5151688;27;20026;-75
2021/03/03 13:30:59;;;;;;;15.60;8.82;;;25.40;47.00;;;;;;5134196;27;20035;-75
2021/03/03 13:33:25;;;;;;;15.18;8.60;;;25.30;47.40;;;;;;5142147;27;20027;-75
2021/03/03 13:35:50;;;;;;;17.83;8.30;;;25.20;47.60;;;;;;5152704;27;20486;-75
2021/03/03 13:38:16;;;;;;;14.95;8.40;;;25.10;47.90;;;;;;5153022;27;20079;-76
2021/03/03 13:40:44;;;;;;;13.98;8.35;;;24.90;48.20;;;;;;5153818;27;20030;-75
2021/03/03 13:43:10;;;;;;;12.25;8.02;;;25.00;48.20;;;;;;5148777;27;20026;-76
2021/03/03 13:45:36;;;;;;;13.48;8.75;;;24.90;48.30;;;;;;5136281;27;20026;-76
2021/03/03 13:48:02;;;;;;;14.48;9.13;;;24.80;48.50;;;;;;5152844;27;20034;-77
2021/03/03 13:50:28;;;;;;;18.35;8.27;;;24.80;48.50;;;;;;5151334;27;20026;-76
2021/03/03 13:52:54;;;;;;;13.73;8.10;;;24.70;48.50;;;;;;5148090;27;20055;-75
2021/03/03 13:55:20;;;;;;;15.93;8.20;;;24.70;48.70;;;;;;5150353;27;20045;-73
2021/03/03 13:57:45;;;;;;;17.00;8.48;;;24.60;48.80;;;;;;5153954;27;20034;-74
2021/03/03 14:00:12;;;;;;;18.30;8.45;;;24.50;48.90;;;;;;5154106;27;20023;-74
2021/03/03 14:02:37;;;;;;;14.30;8.02;;;24.40;48.80;;;;;;5153778;27;20094;-74
2021/03/03 14:05:04;;;;;;;14.57;8.02;;;24.30;49.00;;;;;;5153844;27;20046;-74
2021/03/03 14:07:31;;;;;;;15.98;8.18;;;24.20;49.20;;;;;;5153605;27;20038;-74
2021/03/03 14:09:57;;;;;;;13.75;8.57;;;24.10;49.30;;;;;;5153867;27;20026;-74
2021/03/03 14:12:22;;;;;;;12.10;7.65;;;24.00;49.50;;;;;;5153438;27;20029;-74
2021/03/03 14:14:48;;;;;;;12.07;7.75;;;23.80;49.70;;;;;;5153767;27;20031;-74
2021/03/03 14:17:13;;;;;;;14.60;8.20;;;23.70;50.00;;;;;;5152745;27;20381;-73
2021/03/03 14:19:39;;;;;;;14.18;7.30;;;23.50;50.20;;;;;;5152558;27;20019;-73
2021/03/03 14:22:05;;;;;;;17.65;7.63;;;23.50;50.70;;;;;;5153771;27;20022;-73
2021/03/03 14:24:31;;;;;;;12.38;7.18;;;23.40;50.80;;;;;;5134346;27;20054;-74
2021/03/03 14:26:57;;;;;;;17.38;7.93;;;23.30;51.10;;;;;;5153265;27;20085;-72
2021/03/03 14:29:22;;;;;;;14.15;7.55;;;23.20;51.20;;;;;;5153280;27;20742;-73
2021/03/03 14:31:49;;;;;;;15.05;7.57;;;23.10;51.50;;;;;;5167996;27;20442;-74
2021/03/03 14:34:15;;;;;;;21.73;8.02;;;23.00;51.60;;;;;;5154289;27;20027;-73
2021/03/03 14:36:40;;;;;;;29.98;8.75;;;23.00;52.00;;;;;;5164731;27;20029;-75
2021/03/03 14:39:06;;;;;;;32.42;9.25;;;23.00;51.80;;;;;;5153075;27;20019;-74
2021/03/03 14:41:32;;;;;;;23.30;8.73;;;22.80;51.80;;;;;;5152958;27;20026;-74
2021/03/03 14:43:58;;;;;;;28.98;10.63;;;22.70;52.10;;;;;;5153068;27;20019;-74
2021/03/03 14:46:23;;;;;;;78.32;15.77;;;22.70;52.20;;;;;;5156871;27;20077;-75
2021/03/03 14:48:53;;;;;;;75.38;15.02;;;22.60;52.20;;;;;;5174151;27;20155;-73
2021/03/03 14:51:20;;;;;;;59.72;11.73;;;22.50;53.00;;;;;;5160477;27;20041;-74
2021/03/03 14:53:46;;;;;;;82.97;14.48;;;22.40;52.50;;;;;;5138256;27;20066;-74
2021/03/03 14:56:11;;;;;;;82.78;16.02;;;22.40;52.70;;;;;;5152047;27;20039;-74
2021/03/03 14:58:37;;;;;;;56.63;12.88;;;22.30;53.00;;;;;;5149236;27;20060;-74
2021/03/03 15:01:03;;;;;;;68.22;14.43;;;22.20;53.90;;;;;;5134295;27;20083;-73
2021/03/03 15:03:29;;;;;;;55.88;13.43;;;22.10;53.40;;;;;;5153963;27;20018;-72
2021/03/03 15:05:54;;;;;;;57.97;12.90;;;22.10;53.60;;;;;;5153432;27;20452;-73
2021/03/03 15:08:20;;;;;;;61.65;13.52;;;22.00;53.70;;;;;;5161225;27;20099;-71
2021/03/03 15:10:45;;;;;;;55.85;13.23;;;22.00;53.80;;;;;;5158987;27;20037;-71
2021/03/03 15:13:11;;;;;;;48.10;12.93;;;21.90;54.10;;;;;;5171407;27;20492;-74
2021/03/03 15:15:41;;;;;;;55.97;12.05;;;21.90;54.20;;;;;;5155360;27;20045;-73
2021/03/03 15:18:07;;;;;;;52.85;12.77;;;21.80;54.40;;;;;;5169688;27;20017;-70
2021/03/03 15:20:33;;;;;;;52.55;12.15;;;21.80;54.70;;;;;;5164782;27;20112;-71
2021/03/03 15:22:58;;;;;;;37.22;10.98;;;21.60;54.80;;;;;;5169045;27;20026;-71
2021/03/03 15:25:24;;;;;;;41.05;11.15;;;21.60;54.80;;;;;;5152546;27;20023;-71
2021/03/03 15:27:50;;;;;;;44.17;12.02;;;21.50;55.10;;;;;;5151993;27;20078;-71
2021/03/03 15:30:16;;;;;;;40.67;11.50;;;21.40;55.60;;;;;;5133570;27;20035;-72
2021/03/03 15:32:42;;;;;;;37.22;11.05;;;21.40;56.10;;;;;;5152068;27;20062;-72
2021/03/03 15:35:09;;;;;;;30.40;10.13;;;21.30;56.20;;;;;;5152049;27;20055;-72
2021/03/03 15:37:35;;;;;;;43.60;11.85;;;21.30;56.60;;;;;;5153003;27;20022;-73
2021/03/03 15:40:01;;;;;;;34.78;10.48;;;21.20;56.60;;;;;;5151979;27;20089;-72
2021/03/03 15:42:26;;;;;;;30.58;10.40;;;21.20;56.80;;;;;;5152072;27;20386;-72
2021/03/03 15:44:52;;;;;;;37.83;10.38;;;21.20;57.20;;;;;;5151431;27;20031;-72
2021/03/03 15:47:18;;;;;;;29.10;11.23;;;21.10;57.50;;;;;;5151974;27;20022;-71
2021/03/03 15:49:43;;;;;;;32.72;10.35;;;21.10;57.70;;;;;;5152258;27;20023;-72
2021/03/03 15:52:09;;;;;;;27.42;10.57;;;21.00;57.80;;;;;;5152011;27;20548;-71
2021/03/03 15:54:35;;;;;;;31.10;10.30;;;21.00;58.00;;;;;;5152428;27;20117;-73
2021/03/03 15:57:00;;;;;;;30.75;10.20;;;21.00;58.30;;;;;;5142251;27;20105;-72
2021/03/03 15:59:27;;;;;;;25.98;10.23;;;20.90;58.60;;;;;;5162911;27;20019;-72
2021/03/03 16:01:52;;;;;;;32.22;9.32;;;20.90;58.70;;;;;;5152329;27;20023;-72
2021/03/03 16:04:18;;;;;;;25.73;10.30;;;20.80;58.80;;;;;;5151807;27;20029;-73
2021/03/03 16:06:44;;;;;;;20.17;9.50;;;20.80;58.80;;;;;;5154025;27;20478;-72
2021/03/03 16:09:09;;;;;;;28.90;9.52;;;20.70;58.80;;;;;;5156329;27;20035;-73
2021/03/03 16:11:35;;;;;;;20.50;8.75;;;20.70;58.70;;;;;;5161604;27;20453;-73
2021/03/03 16:14:01;;;;;;;30.90;10.63;;;20.70;59.00;;;;;;5162617;27;20490;-73
2021/03/03 16:16:27;;;;;;;21.70;9.48;;;20.60;59.30;;;;;;5155751;27;20536;-73
2021/03/03 16:18:53;;;;;;;29.80;10.00;;;20.60;59.40;;;;;;5155598;27;20019;-74
2021/03/03 16:21:20;;;;;;;30.95;9.57;;;20.60;59.30;;;;;;5160236;27;20034;-73
2021/03/03 16:23:45;;;;;;;26.67;9.70;;;20.60;59.40;;;;;;5175862;27;20071;-73
2021/03/03 16:26:11;;;;;;;23.38;9.40;;;20.50;59.70;;;;;;5176778;27;20019;-73
2021/03/03 16:28:38;;;;;;;26.05;9.35;;;20.50;59.80;;;;;;5163099;27;20037;-73
2021/03/03 16:31:03;;;;;;;22.75;9.43;;;20.50;60.00;;;;;;5138434;27;20034;-72
2021/03/03 16:33:29;;;;;;;26.23;8.82;;;20.50;60.00;;;;;;5155440;27;20540;-72
2021/03/03 16:35:55;;;;;;;27.70;9.23;;;20.40;60.00;;;;;;5155517;27;20031;-73
2021/03/03 16:38:29;;;;;;;25.42;9.25;;;20.40;60.30;;;;;;5136967;27;20027;-73
2021/03/03 16:40:55;;;;;;;25.98;9.93;;;20.30;60.60;;;;;;5155856;27;20023;-73
2021/03/03 16:43:21;;;;;;;17.42;8.25;;;20.20;61.40;;;;;;5155320;27;20019;-73
2021/03/03 16:45:47;;;;;;;18.17;8.18;;;20.30;61.10;;;;;;5155536;27;20034;-73
2021/03/03 16:48:13;;;;;;;25.73;9.23;;;20.30;60.40;;;;;;5155013;27;20031;-73
2021/03/03 16:50:39;;;;;;;19.50;7.85;;;20.40;59.50;;;;;;5155724;27;20029;-73
2021/03/03 16:53:06;;;;;;;19.88;7.43;;;20.40;59.60;;;;;;5154347;27;20023;-73
2021/03/03 16:55:32;;;;;;;22.23;8.13;;;20.50;59.50;;;;;;5155000;27;20049;-73
2021/03/03 16:57:58;;;;;;;18.20;7.60;;;20.50;59.60;;;;;;5164743;27;20075;-74
2021/03/03 17:00:24;;;;;;;21.58;8.27;;;20.60;59.70;;;;;;5151296;27;20026;-73
2021/03/03 17:02:50;;;;;;;19.77;8.32;;;20.60;59.50;;;;;;5153370;27;20574;-74
2021/03/03 17:05:16;;;;;;;18.88;8.70;;;20.70;59.50;;;;;;5154602;27;20023;-73
2021/03/03 17:07:41;;;;;;;20.02;7.82;;;20.70;59.50;;;;;;5154552;27;20023;-73
2021/03/03 17:10:07;;;;;;;22.55;8.02;;;20.70;59.20;;;;;;5156620;27;20106;-73
2021/03/03 17:12:33;;;;;;;18.83;7.30;;;20.80;59.40;;;;;;5165689;27;20026;-72
2021/03/03 17:14:59;;;;;;;18.88;7.43;;;20.90;59.40;;;;;;5164793;27;20046;-73
2021/03/03 17:17:24;;;;;;;17.35;7.35;;;20.90;59.30;;;;;;5160400;27;20587;-73
2021/03/03 17:19:51;;;;;;;19.60;7.70;;;21.00;59.20;;;;;;5140366;27;20027;-80
2021/03/03 17:22:17;;;;;;;20.67;6.88;;;21.10;59.10;;;;;;5136340;27;20028;-77
2021/03/03 17:24:42;;;;;;;17.73;7.55;;;21.10;58.80;;;;;;5135340;27;20049;-75
2021/03/03 17:27:10;;;;;;;17.75;6.68;;;21.20;59.40;;;;;;5135150;27;20468;-74
2021/03/03 17:29:35;;;;;;;21.40;6.97;;;21.30;59.50;;;;;;5153871;27;20029;-74
2021/03/03 17:32:02;;;;;;;18.13;7.43;;;21.30;59.10;;;;;;5154614;27;20026;-74
2021/03/03 17:34:27;;;;;;;16.55;6.47;;;21.40;58.80;;;;;;5153842;27;20103;-74
2021/03/03 17:36:53;;;;;;;13.82;5.82;;;21.40;58.80;;;;;;5152733;27;20500;-74
2021/03/03 17:39:19;;;;;;;13.60;7.22;;;21.40;59.40;;;;;;5151564;27;20043;-74
2021/03/03 17:41:44;;;;;;;17.17;6.18;;;21.40;58.50;;;;;;5153883;27;20556;-74
2021/03/03 17:44:10;;;;;;;14.90;6.28;;;21.40;58.30;;;;;;5153477;27;20390;-75
2021/03/03 17:46:37;;;;;;;14.43;6.88;;;21.50;58.30;;;;;;5150391;27;20027;-74
2021/03/03 17:49:02;;;;;;;12.27;6.45;;;21.50;58.20;;;;;;5152517;27;20026;-74
2021/03/03 17:51:28;;;;;;;12.98;6.47;;;21.50;58.30;;;;;;5153128;27;20027;-75
2021/03/03 17:53:54;;;;;;;14.07;6.95;;;21.60;58.10;;;;;;5152667;27;20481;-75
2021/03/03 17:56:19;;;;;;;14.15;6.53;;;21.60;58.20;;;;;;5153139;27;20038;-75
2021/03/03 17:58:45;;;;;;;17.83;6.32;;;21.70;58.20;;;;;;5135192;27;20011;-77
2021/03/03 18:01:11;;;;;;;13.30;6.47;;;21.70;58.20;;;;;;5157309;27;20031;-76
2021/03/03 18:03:36;;;;;;;12.23;6.50;;;21.80;58.00;;;;;;5153888;27;20098;-75
2021/03/03 18:06:02;;;;;;;17.23;8.15;;;21.80;58.50;;;;;;5153727;27;20039;-74
2021/03/03 18:08:28;;;;;;;13.63;6.50;;;21.90;58.00;;;;;;5153121;27;20030;-74
2021/03/03 18:10:54;;;;;;;14.30;6.63;;;21.90;57.90;;;;;;5153371;27;20109;-75
2021/03/03 18:13:20;;;;;;;17.70;6.82;;;21.90;57.90;;;;;;5153375;27;20031;-75
2021/03/03 18:15:46;;;;;;;13.27;6.43;;;22.00;58.40;;;;;;5153850;27;20082;-75
2021/03/03 18:18:12;;;;;;;18.35;7.30;;;22.00;57.90;;;;;;5138467;27;20018;-77
2021/03/03 18:20:39;;;;;;;15.88;6.75;;;22.10;57.80;;;;;;5154262;27;20530;-75
2021/03/03 18:23:05;;;;;;;15.07;6.68;;;22.10;57.70;;;;;;5154494;27;20075;-76
2021/03/03 18:25:31;;;;;;;14.27;6.72;;;22.10;57.60;;;;;;5153622;27;20026;-77
2021/03/03 18:27:57;;;;;;;15.25;6.32;;;22.10;57.70;;;;;;5153773;27;20495;-75
2021/03/03 18:30:24;;;;;;;16.23;6.95;;;22.10;57.70;;;;;;5151777;27;20031;-76
2021/03/03 18:32:49;;;;;;;15.13;6.22;;;22.20;57.80;;;;;;5132996;27;20402;-77
2021/03/03 18:35:16;;;;;;;16.70;6.47;;;22.20;57.70;;;;;;5152820;27;20031;-76
2021/03/03 18:37:43;;;;;;;18.95;6.28;;;22.20;57.70;;;;;;5153749;27;20019;-72
2021/03/03 18:40:09;;;;;;;14.00;6.63;;;22.30;58.30;;;;;;5155395;27;20011;-76
2021/03/03 18:42:35;;;;;;;15.15;7.15;;;22.30;57.90;;;;;;5147184;27;20023;-77
2021/03/03 18:45:02;;;;;;;14.82;6.47;;;22.40;58.00;;;;;;5153411;27;20447;-74
2021/03/03 18:47:28;;;;;;;15.25;6.25;;;22.40;58.00;;;;;;5136102;27;20028;-78
2021/03/03 18:49:54;;;;;;;15.43;6.38;;;22.50;57.80;;;;;;5152135;27;20130;-73
2021/03/03 18:52:20;;;;;;;17.13;6.43;;;22.50;57.80;;;;;;5149596;27;20557;-75
2021/03/03 18:54:45;;;;;;;15.73;6.45;;;22.50;57.80;;;;;;5149538;27;20118;-78
2021/03/03 18:57:11;;;;;;;14.30;6.07;;;22.60;57.70;;;;;;5154406;27;20124;-79
2021/03/03 18:59:37;;;;;;;15.23;6.15;;;22.60;57.50;;;;;;5131979;27;20620;-77
2021/03/03 19:02:03;;;;;;;16.23;6.43;;;22.80;57.20;;;;;;5151960;27;20071;-78
2021/03/03 19:04:28;;;;;;;15.88;6.03;;;22.80;57.10;;;;;;5152096;27;20022;-76
2021/03/03 19:06:54;;;;;;;14.35;5.50;;;22.90;56.90;;;;;;5152303;27;20038;-79
2021/03/03 19:09:19;;;;;;;9.50;5.47;;;23.00;56.70;;;;;;5154997;27;20524;-75
2021/03/03 19:11:45;;;;;;;12.57;5.85;;;23.10;56.60;;;;;;5147966;27;20098;-76
2021/03/03 19:14:11;;;;;;;12.55;6.05;;;23.20;56.60;;;;;;5151411;27;20384;-83
2021/03/03 19:16:37;;;;;;;12.20;5.30;;;23.30;56.60;;;;;;5149814;27;20038;-78
2021/03/03 19:19:04;;;;;;;10.80;5.20;;;23.30;56.60;;;;;;5152180;27;20015;-80
2021/03/03 19:21:29;;;;;;;15.38;6.28;;;23.30;56.50;;;;;;5150934;27;20168;-81
2021/03/03 19:23:55;;;;;;;10.57;5.32;;;23.30;56.70;;;;;;5132092;27;20506;-77
2021/03/03 19:26:22;;;;;;;13.95;5.97;;;23.40;57.00;;;;;;5150600;27;20533;-76
2021/03/03 19:28:48;;;;;;;17.60;6.10;;;23.40;56.80;;;;;;5149257;27;20026;-77
2021/03/03 19:31:14;;;;;;;12.63;5.88;;;23.40;56.70;;;;;;5120732;27;20027;-81
2021/03/03 19:33:40;;;;;;;12.40;6.75;;;23.40;56.90;;;;;;5150856;27;20045;-76
2021/03/03 19:36:06;;;;;;;29.08;9.77;;;23.40;57.00;;;;;;5150579;27;20033;-79
2021/03/03 19:38:33;;;;;;;32.80;11.18;;;23.40;57.20;;;;;;5151664;27;20026;-74
2021/03/03 19:40:59;;;;;;;24.63;9.55;;;23.40;57.20;;;;;;5127517;27;20557;-78
2021/03/03 19:43:26;;;;;;;21.65;9.88;;;23.30;57.10;;;;;;5150037;27;20030;-79
2021/03/03 19:45:52;;;;;;;25.58;9.68;;;23.20;57.20;;;;;;5148690;27;20027;-78
2021/03/03 19:48:17;;;;;;;21.55;9.18;;;23.10;57.10;;;;;;5133630;27;20075;-81
2021/03/03 19:50:43;;;;;;;17.10;8.68;;;23.10;57.80;;;;;;5150053;27;20088;-74
2021/03/03 19:53:09;;;;;;;19.10;8.93;;;23.00;57.30;;;;;;5147980;27;20071;-78
2021/03/03 19:55:35;;;;;;;15.50;8.60;;;22.90;57.60;;;;;;5150613;27;20039;-78
2021/03/03 19:58:01;;;;;;;20.63;8.10;;;22.80;57.70;;;;;;5149138;27;20018;-76
2021/03/03 20:00:26;;;;;;;15.80;9.05;;;22.70;58.00;;;;;;5150583;27;20089;-76
2021/03/03 20:02:52;;;;;;;20.10;8.95;;;22.70;58.30;;;;;;5152620;27;20394;-77
2021/03/03 20:05:19;;;;;;;20.50;9.55;;;22.70;58.40;;;;;;5135580;27;20027;-77
2021/03/03 20:07:44;;;;;;;20.73;8.50;;;22.60;58.60;;;;;;5134626;27;20027;-75
2021/03/03 20:10:11;;;;;;;15.50;9.82;;;22.50;58.60;;;;;;5151506;27;20018;-78
2021/03/03 20:12:48;;;;;;;21.00;10.38;;;22.50;58.70;;;;;;5151628;27;20023;-78
2021/03/03 20:15:16;;;;;;;21.67;11.00;;;22.40;58.60;;;;;;5150877;27;20410;-78
2021/03/03 20:17:42;;;;;;;21.42;11.68;;;22.40;58.50;;;;;;5152596;27;20047;-77
2021/03/03 20:20:13;;;;;;;25.67;11.73;;;22.40;58.50;;;;;;5151796;27;20094;-79